KACK/ACK METAR and TAF weather

Enter ICAO airport designator
Station Type Date Time Source
KACK METAR 2021/04/18 01:53 UTC NOAA

KACK 180153Z AUTO 33004KT 10SM OVC060 06/03 A2979 RMK AO2 SLP088 T00610028


Station Type Date Time Source
KACK Decoded METAR 2021/04/18 01:53 UTC NOAA

NANTUCKET MEMORIAL AIRPORT, MA, United States (KACK) 41-15N 70-04W 16M
Apr 17, 2021 - 09:53 PM EDT / 2021.04.18 0153 UTC
Wind: from the NNW (330 degrees) at 5 MPH (4 KT):0
Visibility: 10 mile(s):0
Sky conditions: overcast
Temperature: 43.0 F (6.1 C)
Dew Point: 37.0 F (2.8 C)
Relative Humidity: 79%
Pressure (altimeter): 29.79 in. Hg (1008 hPa)
ob: KACK 180153Z AUTO 33004KT 10SM OVC060 06/03 A2979 RMK AO2 SLP088 T00610028
cycle: 2

Station Type Date Time Source
KACK TAF 2021/04/17 18:30 UTC NOAA

TAF KACK 171728Z 1718/1818 33019G27KT P6SM VCSH BKN025 OVC040
FM172200 33014G22KT P6SM BKN030
FM180000 33011KT P6SM BKN040
FM181100 29007KT 3SM BR BKN045
FM181500 28008KT P6SM BKN045

Example: see airport list